Time;durP1;ratioP1;P1;durP2;ratioP2;P2;SDS_P1;SDS_P2;PMS_P1;PMS_P2;Temp;Humidity;BMP_temperature;BMP_pressure;BME280_temperature;BME280_humidity;BME280_pressure;Samples;Min_cycle;Max_cycle;Signal;HPM_P1;HPM_P2
2023/04/17 00:00:37;;;;;;;65.40;30.40;;;;;;;7.92;100.00;100340.13;5137723;28;20137;-66
2023/04/17 00:03:03;;;;;;;64.63;30.75;;;;;;;8.05;100.00;100362.97;5137100;28;20309;-60
2023/04/17 00:05:30;;;;;;;63.33;29.27;;;;;;;7.91;100.00;100376.75;5137425;27;20138;-56
2023/04/17 00:07:56;;;;;;;69.18;31.90;;;;;;;7.51;100.00;100365.84;5136907;28;20047;-60
2023/04/17 00:10:23;;;;;;;73.18;32.97;;;;;;;7.58;100.00;100352.53;5137381;28;20054;-61
2023/04/17 00:12:49;;;;;;;71.72;30.83;;;;;;;7.41;100.00;100338.84;5136882;28;20141;-58
2023/04/17 00:15:15;;;;;;;67.25;31.35;;;;;;;7.96;100.00;100328.25;5137213;28;20085;-62
2023/04/17 00:17:40;;;;;;;64.15;31.98;;;;;;;8.10;100.00;100349.16;5137115;28;20101;-63
2023/04/17 00:20:09;;;;;;;68.82;31.73;;;;;;;7.77;100.00;100374.94;5137045;28;20097;-64
2023/04/17 00:22:35;;;;;;;72.97;31.40;;;;;;;7.68;100.00;100371.38;5136962;27;20200;-64
2023/04/17 00:25:01;;;;;;;72.65;32.42;;;;;;;7.79;100.00;100366.41;5136859;28;20047;-66
2023/04/17 00:27:27;;;;;;;69.47;32.40;;;;;;;7.84;100.00;100365.47;5136742;27;20451;-66
2023/04/17 00:29:53;;;;;;;77.10;33.42;;;;;;;7.95;100.00;100372.25;5136772;28;20074;-66
2023/04/17 00:32:19;;;;;;;74.72;31.88;;;;;;;7.62;100.00;100374.56;5136621;28;20391;-65
2023/04/17 00:34:45;;;;;;;68.63;33.22;;;;;;;7.86;100.00;100374.16;5136646;28;20068;-62
2023/04/17 00:37:11;;;;;;;77.20;31.55;;;;;;;7.65;100.00;100368.47;5136628;28;20078;-58
2023/04/17 00:39:37;;;;;;;69.55;33.45;;;;;;;7.55;100.00;100350.44;5136487;28;20393;-61
2023/04/17 00:42:03;;;;;;;77.82;33.65;;;;;;;7.50;100.00;100353.34;5136820;28;20046;-62
2023/04/17 00:44:30;;;;;;;73.43;32.58;;;;;;;7.61;100.00;100342.94;5136770;27;20368;-65
2023/04/17 00:46:56;;;;;;;79.93;34.00;;;;;;;7.76;100.00;100323.38;5136607;28;20419;-66
2023/04/17 00:49:23;;;;;;;85.10;35.38;;;;;;;7.86;100.00;100339.44;5136746;28;20145;-57
2023/04/17 00:51:50;;;;;;;78.63;35.00;;;;;;;7.66;100.00;100357.22;5136604;28;20093;-56
2023/04/17 00:54:17;;;;;;;72.28;33.30;;;;;;;7.82;100.00;100363.06;5136314;28;20511;-64
2023/04/17 00:56:44;;;;;;;73.72;32.97;;;;;;;7.75;100.00;100360.78;5138463;27;20051;-59
2023/04/17 00:59:11;;;;;;;70.32;34.53;;;;;;;7.75;100.00;100351.78;5140227;28;20377;-58
2023/04/17 01:01:38;;;;;;;71.82;32.45;;;;;;;7.72;100.00;100350.50;5139844;28;20053;-58
2023/04/17 01:04:05;;;;;;;77.70;35.63;;;;;;;7.85;100.00;100346.03;5140263;28;20137;-61
2023/04/17 01:06:31;;;;;;;73.68;34.25;;;;;;;7.59;100.00;100365.06;5139518;28;20129;-61
2023/04/17 01:08:57;;;;;;;74.85;33.70;;;;;;;7.85;100.00;100354.22;5140179;28;20078;-57
2023/04/17 01:11:23;;;;;;;72.45;34.42;;;;;;;7.64;100.00;100367.66;5139883;28;20089;-60
2023/04/17 01:13:50;;;;;;;70.88;32.40;;;;;;;7.55;100.00;100356.69;5139475;28;20402;-66
2023/04/17 01:16:16;;;;;;;75.20;34.25;;;;;;;7.45;100.00;100359.72;5139852;27;20080;-62
2023/04/17 01:18:43;;;;;;;75.05;33.28;;;;;;;7.63;100.00;100354.31;5139508;28;20423;-61
2023/04/17 01:21:10;;;;;;;70.88;32.50;;;;;;;7.57;100.00;100348.22;5139677;28;20051;-65
2023/04/17 01:23:44;;;;;;;70.25;31.90;;;;;;;7.57;100.00;100364.59;5139573;27;20055;-57
2023/04/17 01:26:15;;;;;;;65.18;32.05;;;;;;;7.52;100.00;100356.53;5139796;28;20047;-64
2023/04/17 01:28:41;;;;;;;73.85;32.78;;;;;;;7.84;100.00;100360.81;5139326;27;20047;-57
2023/04/17 01:31:07;;;;;;;71.28;31.92;;;;;;;7.18;100.00;100388.00;5139801;28;20043;-57
2023/04/17 01:33:33;;;;;;;75.10;31.08;;;;;;;7.34;100.00;100344.75;5139283;28;20424;-62
2023/04/17 01:35:59;;;;;;;67.40;31.10;;;;;;;7.40;100.00;100348.97;5139580;27;20078;-61
2023/04/17 01:38:25;;;;;;;70.13;31.80;;;;;;;7.59;100.00;100353.34;5139488;28;20061;-63
2023/04/17 01:40:51;;;;;;;68.30;32.65;;;;;;;7.70;100.00;100362.88;5139398;27;20047;-66
2023/04/17 01:43:17;;;;;;;66.40;31.27;;;;;;;7.35;100.00;100370.91;5139434;27;20346;-65
2023/04/17 01:45:43;;;;;;;63.33;32.42;;;;;;;7.74;100.00;100372.03;5139213;28;20150;-67
2023/04/17 01:48:09;;;;;;;69.63;30.80;;;;;;;7.46;100.00;100368.69;5139283;28;20141;-65
2023/04/17 01:50:35;;;;;;;63.10;30.10;;;;;;;7.36;100.00;100369.78;5139154;28;20354;-63
2023/04/17 01:53:01;;;;;;;69.97;29.55;;;;;;;7.64;100.00;100367.66;5139345;28;20054;-60
2023/04/17 01:55:27;;;;;;;62.40;30.15;;;;;;;7.87;100.00;100381.22;5139024;28;20129;-58
2023/04/17 01:57:53;;;;;;;65.93;30.95;;;;;;;7.64;100.00;100397.69;5139214;28;20051;-59
2023/04/17 02:00:20;;;;;;;60.05;29.52;;;;;;;7.37;100.00;100401.41;5138918;28;20086;-60
2023/04/17 02:02:46;;;;;;;67.53;30.52;;;;;;;7.76;100.00;100403.38;5139331;28;20130;-58
2023/04/17 02:05:12;;;;;;;60.42;28.83;;;;;;;7.57;100.00;100397.34;5138660;28;20049;-61
2023/04/17 02:07:38;;;;;;;65.20;29.33;;;;;;;7.66;100.00;100400.88;5138430;27;20043;-58
2023/04/17 02:10:04;;;;;;;59.38;28.67;;;;;;;7.47;100.00;100411.25;5138966;27;20057;-63
2023/04/17 02:12:30;;;;;;;63.67;29.70;;;;;;;7.54;100.00;100390.56;5138652;28;20101;-58
2023/04/17 02:14:59;;;;;;;63.63;28.85;;;;;;;7.31;100.00;100397.22;5138645;27;20043;-60
2023/04/17 02:17:26;;;;;;;59.08;26.42;;;;;;;7.40;100.00;100391.81;5138756;27;20066;-65
2023/04/17 02:19:52;;;;;;;65.40;27.67;;;;;;;7.50;100.00;100397.78;5138916;28;20070;-67
2023/04/17 02:22:18;;;;;;;58.70;28.23;;;;;;;7.53;100.00;100399.06;5138648;28;20392;-64
2023/04/17 02:24:44;;;;;;;64.65;28.42;;;;;;;7.37;100.00;100395.16;5138898;28;20083;-62
2023/04/17 02:27:10;;;;;;;60.97;27.85;;;;;;;7.58;100.00;100400.88;5138402;28;20047;-59
2023/04/17 02:29:36;;;;;;;57.75;28.67;;;;;;;7.64;100.00;100410.53;5138898;28;20047;-66
2023/04/17 02:32:02;;;;;;;61.45;28.02;;;;;;;7.42;100.00;100419.56;5138368;28;20107;-64
2023/04/17 02:34:28;;;;;;;58.25;27.80;;;;;;;7.66;100.00;100411.00;5138740;28;20519;-58
2023/04/17 02:36:54;;;;;;;59.53;29.75;;;;;;;7.59;100.00;100422.38;5138502;28;20188;-62
2023/04/17 02:39:20;;;;;;;58.08;27.58;;;;;;;7.40;100.00;100422.63;5138412;28;20058;-57
2023/04/17 02:41:46;;;;;;;56.80;27.42;;;;;;;7.26;100.00;100405.50;5138289;28;20435;-57
2023/04/17 02:44:12;;;;;;;57.50;27.17;;;;;;;7.03;100.00;100396.53;5138123;28;20134;-57
2023/04/17 02:49:23;;;;;;;54.90;27.27;;;;;;;7.44;100.00;100347.19;5138157;28;20556;-61
2023/04/17 02:51:50;;;;;;;58.70;27.58;;;;;;;7.77;100.00;100376.88;5138358;28;20051;-57
2023/04/17 02:54:16;;;;;;;54.58;27.50;;;;;;;7.70;100.00;100406.53;5137992;27;20390;-61
2023/04/17 02:56:41;;;;;;;54.70;27.20;;;;;;;7.86;100.00;100418.63;5138433;28;20051;-59
2023/04/17 02:59:07;;;;;;;53.25;25.35;;;;;;;7.84;100.00;100431.81;5137965;28;20374;-58
2023/04/17 03:01:36;;;;;;;54.90;25.73;;;;;;;7.90;100.00;100443.41;5138131;27;20111;-57
2023/04/17 03:04:02;;;;;;;46.63;23.08;;;;;;;7.55;100.00;100457.69;5138080;27;20050;-65
2023/04/17 03:06:29;;;;;;;51.45;25.80;;;;;;;7.61;100.00;100460.28;5138016;28;20133;-64
2023/04/17 03:08:55;;;;;;;50.53;26.38;;;;;;;7.58;100.00;100456.25;5138073;28;20083;-65
2023/04/17 03:11:21;;;;;;;52.20;25.92;;;;;;;7.59;100.00;100452.41;5137883;28;20070;-62
2023/04/17 03:13:47;;;;;;;48.25;24.58;;;;;;;7.40;100.00;100441.72;5137873;28;20396;-55
2023/04/17 03:16:14;;;;;;;56.28;25.13;;;;;;;6.93;100.00;100433.06;5137806;28;20122;-63
2023/04/17 03:18:40;;;;;;;48.97;23.35;;;;;;;7.26;100.00;100422.72;5136577;27;20062;-57
2023/04/17 03:21:06;;;;;;;46.65;22.85;;;;;;;7.61;100.00;100422.88;5137743;28;20076;-66
2023/04/17 03:23:32;;;;;;;49.28;24.13;;;;;;;7.20;100.00;100434.84;5138055;28;20055;-63
2023/04/17 03:25:59;;;;;;;46.85;21.88;;;;;;;7.03;100.00;100430.09;5137537;28;20071;-61
2023/04/17 03:28:24;;;;;;;47.80;22.88;;;;;;;7.37;100.00;100398.69;5137910;27;20106;-63
2023/04/17 03:30:51;;;;;;;53.35;24.20;;;;;;;7.60;100.00;100428.63;5137410;27;20051;-59
2023/04/17 03:33:17;;;;;;;48.20;23.05;;;;;;;7.26;100.00;100446.44;5137452;28;20404;-64
2023/04/17 03:35:43;;;;;;;46.13;22.17;;;;;;;7.16;100.00;100428.38;5137641;28;20088;-66
2023/04/17 03:38:09;;;;;;;45.78;22.23;;;;;;;7.31;100.00;100432.66;5137593;28;20424;-62
2023/04/17 03:40:35;;;;;;;45.25;23.17;;;;;;;7.12;100.00;100434.78;5137668;28;20054;-65
2023/04/17 03:43:02;;;;;;;42.33;22.60;;;;;;;7.30;100.00;100433.78;5137451;28;20051;-63
2023/04/17 03:45:28;;;;;;;46.72;21.55;;;;;;;7.47;100.00;100447.53;5137531;28;20143;-60
2023/04/17 03:47:54;;;;;;;47.85;21.98;;;;;;;7.29;100.00;100460.25;5137141;28;20055;-59
2023/04/17 03:50:19;;;;;;;44.28;21.48;;;;;;;7.25;100.00;100466.66;5137635;28;20142;-57
2023/04/17 03:52:45;;;;;;;47.97;20.88;;;;;;;7.38;100.00;100479.41;5137247;27;20096;-58
2023/04/17 03:55:11;;;;;;;39.13;20.02;;;;;;;7.13;100.00;100485.47;5137697;28;20432;-62
2023/04/17 03:57:37;;;;;;;39.72;19.95;;;;;;;7.44;100.00;100482.81;5137098;28;20063;-65
2023/04/17 04:00:06;;;;;;;38.97;19.08;;;;;;;7.27;100.00;100484.31;5137354;28;20082;-66
2023/04/17 04:02:32;;;;;;;38.70;19.15;;;;;;;7.42;100.00;100485.84;5137328;28;20061;-65
2023/04/17 04:04:58;;;;;;;40.83;20.65;;;;;;;7.37;100.00;100493.38;5136990;27;20084;-65
2023/04/17 04:07:24;;;;;;;43.50;20.35;;;;;;;7.46;100.00;100502.41;5137266;27;20051;-63
2023/04/17 04:09:50;;;;;;;37.50;18.30;;;;;;;7.31;100.00;100495.41;5137092;28;20078;-60
2023/04/17 04:12:16;;;;;;;38.00;17.70;;;;;;;7.15;100.00;100505.06;5137276;28;20098;-57
2023/04/17 04:14:42;;;;;;;37.72;19.00;;;;;;;7.24;100.00;100506.75;5136881;28;20051;-61
2023/04/17 04:17:09;;;;;;;40.72;18.52;;;;;;;7.00;100.00;100509.78;5137326;28;20319;-64
2023/04/17 04:19:34;;;;;;;41.22;19.45;;;;;;;7.20;100.00;100508.50;5136911;28;20047;-64
2023/04/17 04:22:01;;;;;;;38.17;17.70;;;;;;;7.44;100.00;100510.09;5137283;28;20207;-66
2023/04/17 04:24:27;;;;;;;38.05;17.13;;;;;;;7.10;100.00;100516.09;5136785;28;20069;-59
2023/04/17 04:26:53;;;;;;;31.15;17.25;;;;;;;6.99;100.00;100516.31;5136567;27;20435;-61
2023/04/17 04:29:24;;;;;;;34.60;18.45;;;;;;;7.42;100.00;100507.66;5136607;27;20142;-63
2023/04/17 04:31:50;;;;;;;37.22;17.77;;;;;;;7.25;100.00;100526.66;5140445;28;20129;-56
2023/04/17 04:34:17;;;;;;;32.13;17.23;;;;;;;7.05;100.00;100526.00;5140309;28;20078;-66
2023/04/17 04:36:48;;;;;;;36.50;16.77;;;;;;;7.28;100.00;100526.84;5140279;28;20123;-63
2023/04/17 04:39:19;;;;;;;32.40;16.65;;;;;;;6.97;100.00;100523.22;5140317;28;20043;-64
2023/04/17 04:41:45;;;;;;;35.20;17.10;;;;;;;7.34;100.00;100527.53;5139997;27;20051;-64
2023/04/17 04:44:11;;;;;;;31.60;16.38;;;;;;;7.10;100.00;100529.72;5140267;27;20082;-61
2023/04/17 04:46:37;;;;;;;33.33;17.35;;;;;;;7.00;100.00;100522.63;5139887;28;20082;-61
2023/04/17 04:49:03;;;;;;;30.50;15.73;;;;;;;7.22;100.00;100519.09;5140229;28;20055;-59
2023/04/17 04:51:32;;;;;;;32.58;16.80;;;;;;;7.15;100.00;100519.50;5139798;28;20396;-59
2023/04/17 04:53:58;;;;;;;36.97;17.48;;;;;;;7.21;100.00;100522.94;5140103;27;20047;-64
2023/04/17 04:56:24;;;;;;;29.77;15.32;;;;;;;6.96;100.00;100527.03;5140072;28;20192;-66
2023/04/17 04:58:50;;;;;;;47.65;16.63;;;;;;;7.17;100.00;100527.41;5139664;28;20133;-64
2023/04/17 05:01:16;;;;;;;31.38;15.70;;;;;;;7.30;100.00;100529.28;5139714;28;20047;-59
2023/04/17 05:03:43;;;;;;;32.25;16.67;;;;;;;7.43;100.00;100528.41;5139679;28;20055;-60
2023/04/17 05:06:10;;;;;;;32.42;16.80;;;;;;;7.47;100.00;100518.47;5139773;28;20047;-60
2023/04/17 05:08:36;;;;;;;34.95;15.68;;;;;;;7.41;100.00;100519.72;5139612;28;20062;-60
2023/04/17 05:11:02;;;;;;;34.38;16.35;;;;;;;7.26;100.00;100518.19;5139840;28;20189;-58
2023/04/17 05:13:29;;;;;;;36.53;15.75;;;;;;;7.68;100.00;100515.22;5139433;28;20043;-55
2023/04/17 05:15:55;;;;;;;29.92;16.15;;;;;;;7.50;100.00;100492.50;5139834;27;20469;-60
2023/04/17 05:18:21;;;;;;;32.38;17.02;;;;;;;7.36;100.00;100492.53;5139253;28;20055;-58
2023/04/17 05:20:47;;;;;;;33.45;15.07;;;;;;;7.45;100.00;100485.22;5139708;28;20077;-56
2023/04/17 05:23:13;;;;;;;31.02;15.27;;;;;;;7.29;100.00;100468.44;5139068;27;20054;-60
2023/04/17 05:25:40;;;;;;;34.50;15.57;;;;;;;7.18;100.00;100456.16;5139349;28;20082;-60
2023/04/17 05:28:06;;;;;;;33.90;16.00;;;;;;;7.28;100.00;100502.28;5139337;28;20429;-61
2023/04/17 05:30:32;;;;;;;30.42;15.30;;;;;;;7.31;100.00;100479.84;5139390;28;20161;-56
2023/04/17 05:32:59;;;;;;;28.02;14.52;;;;;;;7.13;100.00;100450.84;5139337;28;20108;-58
2023/04/17 05:35:26;;;;;;;27.33;13.63;;;;;;;7.40;100.00;100454.56;5139168;28;20047;-58
2023/04/17 05:37:52;;;;;;;24.60;12.63;;;;;;;7.02;100.00;100387.56;5139471;28;20089;-57
2023/04/17 05:40:19;;;;;;;26.77;12.82;;;;;;;7.33;100.00;100351.34;5138978;28;20047;-58
2023/04/17 05:42:45;;;;;;;24.70;13.35;;;;;;;7.74;100.00;100268.31;5138542;27;20083;-60
2023/04/17 05:45:12;;;;;;;25.83;13.95;;;;;;;7.50;100.00;100197.81;5138982;28;20051;-56
2023/04/17 05:47:38;;;;;;;28.88;14.68;;;;;;;7.88;100.00;100165.22;5139380;28;20073;-56
2023/04/17 05:50:05;;;;;;;25.23;13.45;;;;;;;7.45;100.00;100118.81;5138785;28;20047;-57
2023/04/17 05:52:31;;;;;;;24.23;12.05;;;;;;;7.47;100.00;100083.84;5139296;27;20479;-60
2023/04/17 05:54:57;;;;;;;27.50;14.02;;;;;;;7.69;100.00;100100.03;5138775;28;20047;-56
2023/04/17 05:57:23;;;;;;;24.95;13.38;;;;;;;7.64;100.00;100178.53;5138713;28;20047;-58
2023/04/17 05:59:49;;;;;;;32.63;13.07;;;;;;;7.98;100.00;100114.94;5138754;28;20051;-55
2023/04/17 06:02:16;;;;;;;25.98;13.27;;;;;;;8.14;100.00;100019.63;5136092;28;20134;-58
2023/04/17 06:04:42;;;;;;;30.30;14.43;;;;;;;8.31;100.00;99975.03;5136788;27;20071;-69
2023/04/17 06:07:09;;;;;;;43.28;21.42;;;;;;;8.39;100.00;99928.56;5136022;28;20412;-54
2023/04/17 06:09:35;;;;;;;32.22;15.95;;;;;;;8.44;100.00;99876.47;5138268;27;20112;-57
2023/04/17 06:12:01;;;;;;;22.73;12.52;;;;;;;8.43;100.00;99778.41;5138439;28;20050;-55
2023/04/17 06:14:27;;;;;;;25.13;11.90;;;;;;;8.60;100.00;99753.69;5138822;28;20051;-63
2023/04/17 06:16:54;;;;;;;19.83;11.15;;;;;;;8.28;100.00;99670.53;5138779;28;20047;-64
2023/04/17 06:19:21;;;;;;;22.60;10.88;;;;;;;8.22;100.00;99710.13;5138074;28;20093;-64
2023/04/17 06:21:47;;;;;;;17.77;10.52;;;;;;;8.24;100.00;99684.06;5138470;27;20353;-60
2023/04/17 06:24:13;;;;;;;24.90;11.13;;;;;;;8.62;100.00;99665.88;5138238;28;20382;-65
2023/04/17 06:26:39;;;;;;;22.55;12.18;;;;;;;8.65;100.00;99599.59;5138151;28;20082;-63
2023/04/17 06:29:05;;;;;;;18.02;9.52;;;;;;;8.54;100.00;99560.19;5138065;28;20112;-66
2023/04/17 06:31:31;;;;;;;20.35;11.48;;;;;;;8.54;100.00;99577.38;5137950;27;20114;-63
2023/04/17 06:33:57;;;;;;;24.00;11.00;;;;;;;8.74;100.00;99586.63;5138255;28;20392;-58
2023/04/17 06:36:23;;;;;;;17.15;10.07;;;;;;;8.64;100.00;99592.53;5137789;27;20363;-67
2023/04/17 06:38:49;;;;;;;18.42;10.20;;;;;;;8.74;100.00;99517.50;5138096;27;20059;-62
2023/04/17 06:41:15;;;;;;;17.95;10.48;;;;;;;8.57;100.00;99530.25;5137864;27;20396;-59
2023/04/17 06:43:41;;;;;;;18.35;10.25;;;;;;;8.46;100.00;99600.97;5138128;27;20392;-56
2023/04/17 06:46:07;;;;;;;17.25;10.38;;;;;;;8.74;100.00;99561.22;5137846;28;20387;-59
2023/04/17 06:48:33;;;;;;;17.98;10.45;;;;;;;8.89;100.00;99473.03;5138022;28;20137;-65
2023/04/17 06:50:59;;;;;;;17.02;10.32;;;;;;;8.80;100.00;99450.50;5137686;28;20093;-64
2023/04/17 06:53:25;;;;;;;18.77;10.55;;;;;;;8.99;100.00;99460.81;5137815;27;20360;-62
2023/04/17 06:55:53;;;;;;;19.83;10.75;;;;;;;8.94;100.00;99416.16;5137720;28;20059;-61
2023/04/17 06:58:19;;;;;;;20.15;10.43;;;;;;;8.78;100.00;99426.22;5137632;28;20059;-61
2023/04/17 07:00:45;;;;;;;14.80;9.63;;;;;;;8.68;100.00;99421.25;5137909;27;20464;-62
2023/04/17 07:03:12;;;;;;;17.17;10.35;;;;;;;8.92;100.00;99445.78;5137646;28;20431;-59
2023/04/17 07:05:38;;;;;;;17.33;9.10;;;;;;;8.74;100.00;99372.63;5137800;27;20454;-59
2023/04/17 07:08:05;;;;;;;15.98;9.00;;;;;;;8.64;100.00;99371.16;5137694;28;20109;-60
2023/04/17 07:10:31;;;;;;;18.05;9.85;;;;;;;8.59;100.00;99339.41;5139238;28;20134;-65
2023/04/17 07:12:58;;;;;;;17.77;8.98;;;;;;;8.75;100.00;99376.94;5140045;27;20081;-65
2023/04/17 07:15:25;;;;;;;14.75;9.02;;;;;;;8.99;100.00;99384.22;5137769;28;20097;-62
2023/04/17 07:17:51;;;;;;;17.33;9.20;;;;;;;9.05;100.00;99342.63;5137429;28;20054;-75
2023/04/17 07:20:17;;;;;;;15.52;8.77;;;;;;;9.04;100.00;99283.59;5137835;28;20380;-67
2023/04/17 07:22:43;;;;;;;16.98;8.30;;;;;;;8.99;100.00;99248.31;5137437;27;20090;-69
2023/04/17 07:25:10;;;;;;;17.15;8.68;;;;;;;8.72;100.00;99241.75;5137536;27;20055;-63
2023/04/17 07:27:37;;;;;;;15.27;8.95;;;;;;;9.26;100.00;99252.09;5137434;28;20144;-61
2023/04/17 07:30:06;;;;;;;17.05;8.70;;;;;;;9.34;100.00;99225.72;5137388;28;20148;-63
2023/04/17 07:32:32;;;;;;;10.15;7.05;;;;;;;9.00;100.00;99216.28;5137543;27;20150;-65
2023/04/17 07:34:58;;;;;;;12.52;7.43;;;;;;;9.06;100.00;99182.84;5137189;27;20416;-62
2023/04/17 07:37:24;;;;;;;14.57;6.70;;;;;;;9.21;100.00;99164.06;5137599;27;20061;-64
2023/04/17 07:39:51;;;;;;;13.63;8.00;;;;;;;9.54;100.00;99175.38;5137241;28;20097;-71
2023/04/17 07:42:18;;;;;;;11.63;7.47;;;;;;;9.35;100.00;99153.44;5137637;27;20065;-66
2023/04/17 07:44:44;;;;;;;14.48;7.72;;;;;;;9.30;100.00;99164.66;5137009;28;20051;-65
2023/04/17 07:47:10;;;;;;;13.77;7.50;;;;;;;9.74;100.00;99137.06;5137501;28;20051;-65
2023/04/17 07:49:38;;;;;;;10.90;7.03;;;;;;;9.97;100.00;99126.97;5136981;27;20047;-67
2023/04/17 07:52:04;;;;;;;12.73;7.13;;;;;;;10.28;100.00;99127.97;5136956;28;20097;-72
2023/04/17 07:54:30;;;;;;;8.63;6.13;;;;;;;10.23;100.00;99120.81;5137263;27;20164;-63
2023/04/17 07:57:01;;;;;;;10.52;6.07;;;;;;;10.13;100.00;99138.66;5137135;28;20111;-69
2023/04/17 07:59:28;;;;;;;11.13;6.47;;;;;;;9.96;100.00;99127.31;5137046;28;20051;-73
2023/04/17 08:01:54;;;;;;;8.63;5.72;;;;;;;9.90;100.00;99135.06;5136986;28;20196;-72
2023/04/17 08:04:20;;;;;;;10.80;5.28;;;;;;;10.08;100.00;99155.34;5137544;27;20405;-67
2023/04/17 08:06:46;;;;;;;7.75;4.03;;;;;;;9.50;100.00;99182.72;5141227;27;20416;-63
2023/04/17 08:09:12;;;;;;;5.72;3.80;;;;;;;9.65;100.00;99140.78;5141678;28;20051;-59
2023/04/17 08:11:37;;;;;;;6.72;4.53;;;;;;;9.66;100.00;99155.28;5140746;28;20093;-61
2023/04/17 08:14:03;;;;;;;7.40;4.43;;;;;;;9.57;100.00;99162.91;5140870;27;20043;-65
2023/04/17 08:16:30;;;;;;;10.40;4.47;;;;;;;9.57;100.00;99146.50;5140367;28;20151;-71
2023/04/17 08:18:56;;;;;;;7.75;4.45;;;;;;;9.30;100.00;99143.56;5140596;27;20328;-68
2023/04/17 08:21:22;;;;;;;9.68;4.90;;;;;;;9.13;100.00;99139.28;5140391;27;20085;-66
2023/04/17 08:23:48;;;;;;;10.50;5.10;;;;;;;9.19;100.00;99137.84;5140651;28;20062;-66
2023/04/17 08:26:17;;;;;;;8.05;4.80;;;;;;;9.47;100.00;99139.63;5140514;28;20134;-63
2023/04/17 08:28:42;;;;;;;6.82;4.85;;;;;;;9.84;100.00;99136.50;5140011;27;20047;-74
2023/04/17 08:31:09;;;;;;;8.27;5.45;;;;;;;9.46;100.00;99129.81;5140034;28;20187;-71
2023/04/17 08:33:36;;;;;;;8.60;5.25;;;;;;;9.50;100.00;99138.13;5140156;28;20051;-69
2023/04/17 08:36:02;;;;;;;8.82;5.78;;;;;;;9.58;100.00;99145.34;5140418;27;20043;-70
2023/04/17 08:38:29;;;;;;;8.68;5.30;;;;;;;9.82;100.00;99145.06;5140221;27;20115;-70
2023/04/17 08:40:58;;;;;;;11.57;5.85;;;;;;;9.53;100.00;99146.41;5140553;27;20058;-62
2023/04/17 08:43:27;;;;;;;12.30;5.35;;;;;;;9.82;100.00;99144.25;5139913;27;20134;-63
2023/04/17 08:45:54;;;;;;;10.88;5.35;;;;;;;9.65;100.00;99140.00;5139867;28;20189;-71
2023/04/17 08:48:21;;;;;;;9.55;5.65;;;;;;;9.76;100.00;99141.00;5140198;28;20058;-70
2023/04/17 08:50:50;;;;;;;9.25;5.85;;;;;;;9.74;100.00;99153.50;5139499;28;20051;-65
2023/04/17 08:53:16;;;;;;;14.85;6.55;;;;;;;9.79;100.00;99159.47;5139707;27;20460;-71
2023/04/17 08:55:43;;;;;;;11.05;5.40;;;;;;;9.48;100.00;99163.09;5139870;28;20082;-70
2023/04/17 08:58:09;;;;;;;11.63;6.28;;;;;;;9.96;100.00;99152.75;5139977;28;20101;-60
2023/04/17 09:00:36;;;;;;;11.55;6.13;;;;;;;10.05;100.00;99155.28;5139716;28;20097;-72
2023/04/17 09:03:03;;;;;;;9.18;5.22;;;;;;;10.05;100.00;99147.84;5139872;27;20047;-64
2023/04/17 09:05:32;;;;;;;9.82;5.70;;;;;;;9.94;100.00;99178.94;5139537;27;20055;-64
2023/04/17 09:08:11;;;;;;;8.63;5.35;;;;;;;9.79;100.00;99164.94;5140005;28;20097;-65
2023/04/17 09:10:38;;;;;;;14.23;5.38;;;;;;;9.79;100.00;99151.25;5139376;28;20046;-64
2023/04/17 09:13:05;;;;;;;7.43;4.70;;;;;;;9.48;100.00;99154.09;5139563;28;20144;-63
2023/04/17 09:15:31;;;;;;;7.65;4.90;;;;;;;9.81;100.00;99159.91;5139191;27;20084;-62
2023/04/17 09:17:56;;;;;;;11.15;5.68;;;;;;;9.72;100.00;99162.06;5138183;27;20329;-64
2023/04/17 09:20:24;;;;;;;12.18;5.90;;;;;;;9.77;100.00;99159.03;5139209;27;20043;-65
2023/04/17 09:22:59;;;;;;;9.55;5.53;;;;;;;9.78;100.00;99163.34;5139158;27;20447;-63
2023/04/17 09:25:26;;;;;;;14.20;6.13;;;;;;;10.14;100.00;99153.13;5139496;27;20134;-60
2023/04/17 09:27:53;;;;;;;11.45;5.78;;;;;;;10.10;100.00;99155.00;5138803;27;20072;-65
2023/04/17 09:30:19;;;;;;;8.60;6.03;;;;;;;9.97;100.00;99143.41;5139323;28;20150;-65
2023/04/17 09:32:45;;;;;;;10.30;5.55;;;;;;;10.06;100.00;99152.22;5138887;28;20058;-68
2023/04/17 09:35:24;;;;;;;15.35;5.43;;;;;;;9.76;100.00;99151.97;5139257;27;20293;-63
2023/04/17 09:37:51;;;;;;;11.85;6.13;;;;;;;9.96;100.00;99155.50;5138914;28;20051;-60
2023/04/17 09:40:19;;;;;;;12.25;6.65;;;;;;;10.25;100.00;99145.88;5138983;27;20121;-60
2023/04/17 09:42:57;;;;;;;13.00;6.45;;;;;;;9.79;100.00;99144.97;5138938;28;20047;-61
2023/04/17 09:45:24;;;;;;;11.02;5.95;;;;;;;10.10;100.00;99139.38;5138905;28;20243;-63
2023/04/17 09:47:51;;;;;;;13.70;6.00;;;;;;;10.33;100.00;99144.91;5138723;27;20043;-63
2023/04/17 09:50:20;;;;;;;9.95;6.07;;;;;;;10.29;100.00;99146.00;5139000;27;20051;-64
2023/04/17 09:52:49;;;;;;;8.85;5.28;;;;;;;10.06;100.00;99143.16;5139001;28;20297;-65
2023/04/17 09:55:16;;;;;;;12.07;6.00;;;;;;;9.73;100.00;99152.72;5138680;28;20146;-66
2023/04/17 09:57:43;;;;;;;9.88;5.97;;;;;;;9.58;100.00;99168.00;5139026;28;20143;-67
2023/04/17 10:00:13;;;;;;;13.82;7.28;;;;;;;9.72;100.00;99183.16;5138647;27;20138;-64
2023/04/17 10:02:41;;;;;;;11.73;6.40;;;;;;;10.02;100.00;99178.72;5138557;27;20076;-61
2023/04/17 10:05:09;;;;;;;10.90;6.20;;;;;;;10.19;100.00;99158.28;5138768;27;20047;-65
2023/04/17 10:07:36;;;;;;;9.15;6.03;;;;;;;9.78;100.00;99157.88;5138517;28;20098;-65
2023/04/17 10:10:08;;;;;;;12.45;6.22;;;;;;;9.84;100.00;99156.44;5138495;27;20047;-64
2023/04/17 10:12:35;;;;;;;12.32;6.32;;;;;;;10.18;100.00;99151.25;5138765;27;20047;-66
2023/04/17 10:15:02;;;;;;;11.55;6.50;;;;;;;10.13;100.00;99146.06;5138461;27;20093;-61
2023/04/17 10:17:32;;;;;;;11.27;6.22;;;;;;;10.59;100.00;99141.44;5138284;28;20448;-61
2023/04/17 10:20:32;;;;;;;11.05;6.13;;;;;;;10.52;100.00;99140.53;5139038;28;20051;-66
2023/04/17 10:23:00;;;;;;;7.78;5.10;;;;;;;10.67;100.00;99142.38;5138728;28;20336;-59
2023/04/17 10:25:27;;;;;;;12.90;5.93;;;;;;;10.48;100.00;99151.44;5138582;28;20151;-60
2023/04/17 10:27:55;;;;;;;6.45;4.60;;;;;;;10.25;100.00;99151.38;5138527;27;20063;-65
2023/04/17 10:30:21;;;;;;;8.40;5.63;;;;;;;9.96;100.00;99151.97;5138576;28;20051;-63
2023/04/17 10:33:23;;;;;;;9.38;5.10;;;;;;;9.98;100.00;99152.41;5138251;27;20136;-63
2023/04/17 10:35:49;;;;;;;7.68;5.20;;;;;;;10.02;100.00;99140.38;5137837;27;20460;-61
2023/04/17 10:38:17;;;;;;;7.35;4.55;;;;;;;10.65;100.00;99152.91;5138508;28;20390;-65
2023/04/17 10:40:43;;;;;;;6.35;4.22;;;;;;;10.41;100.00;99153.25;5137714;27;20136;-64
2023/04/17 10:43:11;;;;;;;7.85;4.80;;;;;;;10.59;100.00;99157.88;5138550;28;20058;-62
2023/04/17 10:46:00;;;;;;;11.93;4.38;;;;;;;10.22;100.00;99156.78;5139641;28;20047;-65
2023/04/17 10:48:28;;;;;;;7.95;4.93;;;;;;;10.94;100.00;99153.38;5137817;28;20084;-58
2023/04/17 10:50:55;;;;;;;14.23;5.32;;;;;;;11.48;100.00;99176.94;5137906;28;20419;-59
2023/04/17 10:53:38;;;;;;;6.57;4.45;;;;;;;11.19;100.00;99228.63;5137712;28;20085;-64
2023/04/17 10:56:04;;;;;;;6.53;3.97;;;;;;;10.73;100.00;99236.88;5137967;28;20401;-61
2023/04/17 10:58:30;;;;;;;4.63;3.50;;;;;;;11.07;100.00;99215.91;5137548;28;20092;-62
2023/04/17 11:01:01;;;;;;;6.50;4.22;;;;;;;11.35;100.00;99214.00;5137814;28;20078;-64
2023/04/17 11:03:29;;;;;;;15.15;4.78;;;;;;;11.53;100.00;99242.53;5137682;27;20055;-64
2023/04/17 11:05:58;;;;;;;6.00;3.85;;;;;;;11.88;100.00;99301.91;5137554;27;20047;-64
2023/04/17 11:08:24;;;;;;;5.22;3.72;;;;;;;11.86;100.00;99250.09;5137981;27;20103;-60
2023/04/17 11:10:52;;;;;;;6.43;4.85;;;;;;;11.54;100.00;99264.09;5137558;27;20141;-56
2023/04/17 11:13:18;;;;;;;5.97;4.10;;;;;;;11.50;100.00;99238.56;5137572;28;20050;-62
2023/04/17 11:15:44;;;;;;;6.82;4.90;;;;;;;11.09;100.00;99215.53;5137245;27;20051;-63
2023/04/17 11:18:10;;;;;;;10.05;4.93;;;;;;;11.40;100.00;99195.25;5137627;27;20059;-65